Winnebago, IL (61088)

4:04 PM CDT on August 24, 2016 (GMT -0500)
3 Mi. SE of Winnebago | | Change Station

Elev 838 ft 42.23 °N, 89.19 °W | Updated 5 seconds ago

Partly Cloudy
Partly Cloudy
84.7 °F
Feels Like 98 °F
N
0.0
Wind Variable Wind from West
Gusts 6.0 mph

Today
High -- | Low -- °F
--% Chance of Precip.
Yesterday
High -- | Low -- °F
Precip. -- in
Pressure 29.91 in
Visibility 10.0 miles
Clouds Few 2500 ft
Few 25000 ft
Heat Index 98 °F
Dew Point 80 °F
Humidity 85%
Rainfall 0.41 in
Snow Depth Not available.
6:14 AM 7:43 PM
Waning Gibbous, 53% visible
METAR KRFD 242054Z 26007KT 10SM FEW025 FEW250 29/23 A2993 RMK AO2 SLP129 T02940228 58003
Pressure 29.91 in
Visibility 10.0 miles
Clouds Few 2500 ft
Few 25000 ft
Heat Index 98 °F
Dew Point 80 °F
Humidity 85%
Rainfall 0.41 in
Snow Depth Not available.
6:14 AM 7:43 PM
Waning Gibbous, 53% visible
METAR KRFD 242054Z 26007KT 10SM FEW025 FEW250 29/23 A2993 RMK AO2 SLP129 T02940228 58003

10-Day Weather Forecast

Almanac

Astronomy

Aug. 24, 2016 Rise Set
Actual Time
Civil Twilight
Nautical Twilight
Astronomical Twilight
Moon
Length of Visible Light
Length of Day
Tomorrow will be .
, % of the Moon is Illuminated

Today's Extremes

State Highs State Lows

Community

WunderPhotos

Upload Photos

1,934,714 photos uploaded!

WunderBlog® & News

Nearby

Air Quality

  Air Quality AQ Index Pollutant
Not available.

Snow Depth

Station Depth Elevation

Earthquake Activity

City Distance Mag. Time & Date
Minimum magnitude displayed is 2.5.

Coastal Water Temperatures

Place Temperature

Stations

Nearby Weather Stations

Station Location Temp. Windchill Dew Point Humidity Wind Precip. Elev Updated Type
                   

Watches & Warnings

There are currently no watches in effect.